Time;durP1;ratioP1;P1;durP2;ratioP2;P2;SDS_P1;SDS_P2;PMS_P1;PMS_P2;Temp;Humidity;BMP_temperature;BMP_pressure;BME280_temperature;BME280_humidity;BME280_pressure;Samples;Min_cycle;Max_cycle;Signal;HPM_P1;HPM_P2
2023/05/19 00:02:04;;;;;;;6.05;2.92;;;28.00;97.50;;;;;;5064595;28;20037;-41
2023/05/19 00:04:32;;;;;;;9.40;4.10;;;28.00;97.80;;;;;;5064581;28;20273;-42
2023/05/19 00:07:00;;;;;;;6.90;2.30;;;28.00;98.20;;;;;;5064533;28;20025;-48
2023/05/19 00:09:27;;;;;;;4.50;1.42;;;28.10;98.00;;;;;;5064533;28;20025;-46
2023/05/19 00:11:55;;;;;;;6.78;1.42;;;27.90;97.90;;;;;;5064348;28;20317;-40
2023/05/19 00:14:22;;;;;;;6.95;2.60;;;27.90;98.10;;;;;;5064199;28;20213;-41
2023/05/19 00:16:49;;;;;;;5.45;1.77;;;27.90;98.20;;;;;;5055487;28;20025;-45
2023/05/19 00:19:16;;;;;;;22.67;10.88;;;27.90;98.40;;;;;;5051194;28;20040;-42
2023/05/19 00:21:43;;;;;;;150.93;114.90;;;27.90;98.40;;;;;;5052555;28;20048;-50
2023/05/19 00:24:09;;;;;;;24.92;16.48;;;27.80;98.10;;;;;;5052193;28;20131;-41
2023/05/19 00:26:36;;;;;;;11.02;8.18;;;27.80;98.10;;;;;;5056562;28;20032;-40
2023/05/19 00:29:03;;;;;;;7.45;3.60;;;27.80;98.10;;;;;;5061837;28;20037;-43
2023/05/19 00:31:30;;;;;;;38.70;26.13;;;27.70;98.00;;;;;;5060797;28;20041;-41
2023/05/19 00:33:57;;;;;;;69.88;50.00;;;27.70;98.00;;;;;;5045773;28;20026;-41
2023/05/19 00:36:24;;;;;;;15.88;12.57;;;27.70;98.10;;;;;;5048054;28;20024;-41
2023/05/19 00:38:51;;;;;;;8.23;4.90;;;27.80;98.10;;;;;;5046164;28;20310;-41
2023/05/19 00:41:18;;;;;;;6.70;3.33;;;27.80;98.10;;;;;;5045597;28;20221;-39
2023/05/19 00:43:45;;;;;;;5.40;3.10;;;27.80;98.10;;;;;;5043844;28;20317;-41
2023/05/19 00:46:11;;;;;;;4.18;1.52;;;27.80;98.20;;;;;;5043499;28;20029;-47
2023/05/19 00:48:38;;;;;;;3.13;1.50;;;27.70;98.00;;;;;;5043930;28;20093;-41
2023/05/19 00:51:05;;;;;;;3.78;1.23;;;27.70;98.00;;;;;;5044053;28;20052;-41
2023/05/19 00:53:33;;;;;;;5.75;1.33;;;27.70;98.10;;;;;;5046312;28;20073;-39
2023/05/19 00:56:01;;;;;;;3.35;1.90;;;27.70;98.30;;;;;;5053791;28;20033;-40
2023/05/19 00:58:29;;;;;;;2.17;1.00;;;27.60;98.40;;;;;;5051394;28;20035;-37
2023/05/19 01:01:03;;;;;;;1.58;0.90;;;27.60;98.40;;;;;;5052089;28;20025;-45
2023/05/19 01:03:33;;;;;;;4.05;1.30;;;27.60;98.50;;;;;;5054405;28;20309;-41
2023/05/19 01:06:03;;;;;;;3.10;1.27;;;27.50;98.60;;;;;;5043808;28;20103;-45
2023/05/19 01:08:34;;;;;;;3.97;1.30;;;27.30;99.00;;;;;;5043825;28;20213;-38
2023/05/19 01:11:01;;;;;;;4.80;1.30;;;27.10;99.50;;;;;;5043584;28;20049;-41
2023/05/19 01:13:28;;;;;;;3.00;1.13;;;27.00;99.80;;;;;;5043926;28;20041;-39
2023/05/19 01:16:13;;;;;;;5.93;1.30;;;26.80;99.90;;;;;;5043076;28;20028;-43
2023/05/19 01:19:15;;;;;;;2.60;1.17;;;26.80;99.90;;;;;;5044004;28;20340;-39
2023/05/19 01:22:21;;;;;;;2.55;1.20;;;26.60;99.90;;;;;;5041837;28;20052;-38
2023/05/19 01:25:03;;;;;;;3.25;1.20;;;26.60;99.90;;;;;;5043459;28;20068;-46
2023/05/19 01:27:48;;;;;;;7.32;2.58;;;26.50;99.90;;;;;;5046265;28;20021;-43
2023/05/19 01:30:33;;;;;;;3.90;1.40;;;26.50;99.90;;;;;;5047139;28;20051;-40
2023/05/19 01:33:05;;;;;;;3.40;1.40;;;26.50;99.90;;;;;;5047590;28;20033;-45
2023/05/19 01:35:38;;;;;;;2.78;1.30;;;26.60;99.90;;;;;;5047431;28;20095;-40
2023/05/19 01:38:08;;;;;;;3.15;1.42;;;26.50;99.90;;;;;;5047429;28;20055;-41
2023/05/19 01:40:40;;;;;;;4.93;1.67;;;26.50;99.90;;;;;;5047211;28;20100;-49
2023/05/19 01:43:10;;;;;;;5.38;2.05;;;26.60;99.90;;;;;;5047501;28;20079;-40
2023/05/19 01:45:37;;;;;;;3.97;1.85;;;26.60;99.90;;;;;;5048504;28;20021;-41
2023/05/19 01:48:04;;;;;;;3.25;1.67;;;26.60;99.90;;;;;;5056757;28;20025;-41
2023/05/19 01:50:33;;;;;;;5.10;1.52;;;26.60;99.90;;;;;;5047374;28;20059;-43
2023/05/19 01:53:00;;;;;;;3.40;1.50;;;26.70;99.90;;;;;;5051581;28;20048;-39
2023/05/19 01:55:27;;;;;;;4.10;2.20;;;26.60;99.90;;;;;;5066772;28;20025;-38
2023/05/19 01:58:06;;;;;;;3.60;2.00;;;26.60;99.90;;;;;;5067166;28;20045;-40
2023/05/19 02:00:52;;;;;;;21.83;19.52;;;26.60;99.90;;;;;;5066448;28;20017;-40
2023/05/19 02:03:37;;;;;;;20.85;10.25;;;26.60;99.90;;;;;;5066781;28;20033;-41
2023/05/19 02:06:13;;;;;;;7.72;4.40;;;26.50;99.90;;;;;;5066829;28;20013;-43
2023/05/19 02:08:57;;;;;;;5.55;2.78;;;26.60;99.90;;;;;;5066916;28;20083;-41
2023/05/19 02:11:37;;;;;;;6.60;2.40;;;26.70;99.90;;;;;;5066661;28;20079;-41
2023/05/19 02:14:25;;;;;;;5.13;2.40;;;26.70;99.90;;;;;;5066868;28;20336;-41
2023/05/19 02:16:53;;;;;;;5.07;2.33;;;26.60;99.90;;;;;;5066525;28;20037;-42
2023/05/19 02:19:28;;;;;;;7.53;2.92;;;26.70;99.90;;;;;;5066730;28;20111;-40
2023/05/19 02:21:55;;;;;;;5.50;1.90;;;26.60;99.90;;;;;;5061928;28;20345;-47
2023/05/19 02:24:22;;;;;;;4.63;1.67;;;26.70;99.90;;;;;;5057541;28;20052;-40
2023/05/19 02:26:50;;;;;;;4.72;1.98;;;26.70;99.90;;;;;;5066739;28;20044;-40
2023/05/19 02:29:17;;;;;;;4.32;1.88;;;26.60;99.90;;;;;;5066236;28;20017;-40
2023/05/19 02:31:44;;;;;;;5.63;2.17;;;26.60;99.90;;;;;;5066197;28;20032;-43
2023/05/19 02:34:11;;;;;;;6.75;2.10;;;26.70;99.90;;;;;;5066828;28;20017;-41
2023/05/19 02:36:40;;;;;;;5.35;1.92;;;26.70;99.90;;;;;;5066389;28;20028;-40
2023/05/19 02:39:07;;;;;;;3.25;1.55;;;26.70;99.90;;;;;;5065949;28;20355;-41
2023/05/19 02:41:34;;;;;;;5.22;1.52;;;26.60;99.90;;;;;;5066206;28;20198;-40
2023/05/19 02:44:00;;;;;;;5.63;1.60;;;26.50;99.90;;;;;;5066357;28;20187;-49
2023/05/19 02:46:27;;;;;;;3.72;1.40;;;26.60;99.90;;;;;;5065949;28;20055;-40
2023/05/19 02:48:54;;;;;;;5.35;1.50;;;26.50;99.90;;;;;;5066588;28;20021;-38
2023/05/19 02:51:20;;;;;;;4.28;1.60;;;26.60;99.90;;;;;;5066170;28;20036;-40
2023/05/19 02:53:47;;;;;;;4.82;1.73;;;26.60;99.90;;;;;;5066287;28;20217;-44
2023/05/19 02:56:14;;;;;;;7.05;1.60;;;26.60;99.90;;;;;;5065971;28;20021;-41
2023/05/19 02:58:41;;;;;;;5.43;1.50;;;26.70;99.90;;;;;;5065883;28;20047;-43
2023/05/19 03:01:09;;;;;;;4.45;1.65;;;26.60;99.90;;;;;;5055502;28;20037;-46
2023/05/19 03:03:36;;;;;;;3.17;1.23;;;26.60;99.90;;;;;;5052102;28;20093;-48
2023/05/19 03:06:07;;;;;;;6.75;1.67;;;26.80;99.90;;;;;;5045702;28;20025;-43
2023/05/19 03:08:35;;;;;;;6.00;1.65;;;26.90;99.90;;;;;;5046198;28;20029;-47
2023/05/19 03:11:02;;;;;;;5.82;1.50;;;26.90;99.90;;;;;;5045646;28;20044;-48
2023/05/19 03:13:29;;;;;;;4.85;1.30;;;27.10;99.90;;;;;;5045945;28;20029;-47
2023/05/19 03:15:57;;;;;;;4.35;1.05;;;27.10;99.90;;;;;;5045600;28;20029;-43
2023/05/19 03:18:27;;;;;;;4.43;1.33;;;27.20;99.90;;;;;;5045937;28;20026;-51
2023/05/19 03:20:54;;;;;;;2.58;1.55;;;27.30;99.90;;;;;;5045567;28;20033;-48
2023/05/19 03:23:21;;;;;;;4.80;1.60;;;27.20;99.80;;;;;;5044366;28;20044;-45
2023/05/19 03:25:48;;;;;;;6.10;1.77;;;27.20;99.80;;;;;;5043750;28;20086;-44
2023/05/19 03:28:15;;;;;;;4.55;1.60;;;27.40;99.80;;;;;;5043977;28;20049;-47
2023/05/19 03:30:42;;;;;;;6.93;1.88;;;27.50;99.80;;;;;;5043426;28;20025;-43
2023/05/19 03:33:09;;;;;;;5.00;1.60;;;27.40;99.70;;;;;;5043895;28;20025;-41
2023/05/19 03:35:36;;;;;;;4.15;1.45;;;27.40;99.60;;;;;;5043656;28;20033;-46
2023/05/19 03:38:03;;;;;;;4.68;1.77;;;27.50;99.60;;;;;;5044462;28;20190;-42
2023/05/19 03:40:29;;;;;;;5.53;1.60;;;27.40;99.60;;;;;;5045224;28;20068;-46
2023/05/19 03:42:56;;;;;;;4.20;1.40;;;27.40;99.60;;;;;;5054585;28;20025;-48
2023/05/19 03:45:23;;;;;;;3.25;1.52;;;27.50;99.40;;;;;;5064913;28;20276;-42
2023/05/19 03:47:50;;;;;;;2.75;1.55;;;27.40;99.30;;;;;;5065271;28;20024;-41
2023/05/19 03:50:17;;;;;;;5.10;1.67;;;27.50;99.30;;;;;;5064216;28;20031;-43
2023/05/19 03:52:45;;;;;;;3.95;1.70;;;27.40;99.30;;;;;;5064953;28;20043;-41
2023/05/19 03:55:13;;;;;;;4.53;1.42;;;27.50;99.20;;;;;;5064832;28;20028;-41
2023/05/19 03:57:40;;;;;;;3.60;1.55;;;27.50;99.30;;;;;;5060474;28;20391;-43
2023/05/19 04:00:10;;;;;;;4.75;1.77;;;27.40;99.30;;;;;;5055647;28;20033;-41
2023/05/19 04:02:38;;;;;;;5.70;1.58;;;27.50;99.30;;;;;;5044793;28;20030;-43
2023/05/19 04:05:05;;;;;;;4.80;1.30;;;27.40;99.30;;;;;;5044734;28;20036;-42
2023/05/19 04:07:32;;;;;;;3.90;1.48;;;27.50;99.30;;;;;;5044703;28;20037;-41
2023/05/19 04:09:59;;;;;;;5.57;1.30;;;27.50;99.30;;;;;;5046789;28;20059;-42
2023/05/19 04:12:26;;;;;;;6.10;1.27;;;27.40;99.30;;;;;;5053554;28;20321;-43
2023/05/19 04:14:52;;;;;;;2.90;1.45;;;27.40;99.40;;;;;;5044933;28;20025;-41
2023/05/19 04:17:19;;;;;;;8.85;1.58;;;27.40;99.50;;;;;;5044675;28;20089;-42
2023/05/19 04:19:46;;;;;;;5.25;1.90;;;27.50;99.50;;;;;;5044520;28;20033;-42
2023/05/19 04:22:12;;;;;;;3.72;1.70;;;27.50;99.50;;;;;;5044307;28;20033;-44
2023/05/19 04:24:39;;;;;;;4.15;1.63;;;27.50;99.40;;;;;;5044597;28;20017;-43
2023/05/19 04:27:10;;;;;;;7.57;2.13;;;27.50;99.30;;;;;;5044471;28;20026;-42
2023/05/19 04:29:38;;;;;;;6.60;1.98;;;27.50;99.30;;;;;;5044223;28;20021;-44
2023/05/19 04:32:06;;;;;;;4.10;1.83;;;27.40;99.30;;;;;;5044380;28;20424;-44
2023/05/19 04:34:39;;;;;;;6.70;2.00;;;27.40;99.30;;;;;;5044223;28;20034;-43
2023/05/19 04:37:09;;;;;;;6.70;2.17;;;27.40;99.30;;;;;;5044096;28;20013;-45
2023/05/19 04:39:39;;;;;;;7.07;2.25;;;27.50;99.30;;;;;;5044202;28;20314;-44
2023/05/19 04:42:05;;;;;;;5.43;2.03;;;27.50;99.30;;;;;;5043982;28;20049;-44
2023/05/19 04:44:32;;;;;;;6.68;1.85;;;27.50;99.30;;;;;;5044084;28;20057;-53
2023/05/19 04:46:59;;;;;;;7.15;1.95;;;27.60;99.30;;;;;;5044334;28;20302;-49
2023/05/19 04:49:25;;;;;;;8.73;2.30;;;27.50;99.20;;;;;;5044020;28;20195;-44
2023/05/19 04:51:52;;;;;;;5.75;1.85;;;27.60;99.20;;;;;;5043784;28;20029;-51
2023/05/19 04:54:20;;;;;;;6.07;2.05;;;27.50;99.10;;;;;;5044257;28;20021;-50
2023/05/19 04:56:46;;;;;;;5.78;1.80;;;27.50;99.10;;;;;;5043934;28;20029;-49
2023/05/19 04:59:13;;;;;;;5.78;1.88;;;27.50;99.10;;;;;;5044079;28;20333;-47
2023/05/19 05:01:41;;;;;;;4.85;1.67;;;27.50;99.10;;;;;;5043572;28;20021;-48
2023/05/19 05:04:08;;;;;;;5.22;1.70;;;27.50;99.10;;;;;;5044372;28;20368;-50
2023/05/19 05:06:37;;;;;;;5.97;1.60;;;27.50;99.10;;;;;;5043686;28;20025;-49
2023/05/19 05:09:03;;;;;;;6.85;1.60;;;27.50;99.00;;;;;;5044458;28;20096;-47
2023/05/19 05:11:30;;;;;;;7.30;1.60;;;27.50;99.10;;;;;;5043702;28;20225;-43
2023/05/19 05:13:57;;;;;;;5.50;1.55;;;27.40;99.00;;;;;;5044086;28;20068;-46
2023/05/19 05:16:25;;;;;;;4.18;1.50;;;27.40;99.00;;;;;;5044099;28;20218;-42
2023/05/19 05:18:52;;;;;;;6.63;1.50;;;27.50;99.10;;;;;;5044154;28;20092;-50
2023/05/19 05:21:20;;;;;;;2.60;1.50;;;27.40;98.90;;;;;;5061379;28;20036;-49
2023/05/19 05:23:47;;;;;;;7.95;1.40;;;27.40;98.90;;;;;;5063984;28;20036;-46
2023/05/19 05:26:25;;;;;;;6.10;1.80;;;27.40;98.90;;;;;;5063555;28;20119;-49
2023/05/19 05:28:51;;;;;;;5.70;1.52;;;27.30;98.90;;;;;;5063383;28;20110;-46
2023/05/19 05:31:18;;;;;;;7.97;1.48;;;27.30;99.00;;;;;;5063774;28;20025;-48
2023/05/19 05:33:45;;;;;;;5.60;1.60;;;27.40;99.10;;;;;;5063919;28;20351;-45
2023/05/19 05:36:12;;;;;;;7.20;1.67;;;27.30;99.00;;;;;;5063631;28;20040;-44
2023/05/19 05:38:39;;;;;;;6.70;1.77;;;27.40;99.10;;;;;;5063839;28;20032;-49
2023/05/19 05:41:05;;;;;;;7.43;1.83;;;27.20;99.10;;;;;;5048382;28;20064;-43
2023/05/19 05:43:32;;;;;;;6.03;1.45;;;27.30;99.20;;;;;;5043811;28;20083;-46
2023/05/19 05:45:59;;;;;;;4.90;1.70;;;27.30;99.10;;;;;;5043518;28;20055;-44
2023/05/19 05:48:26;;;;;;;7.05;1.70;;;27.30;99.10;;;;;;5043743;28;20052;-42
2023/05/19 05:50:53;;;;;;;5.40;1.40;;;27.40;99.10;;;;;;5043447;28;20039;-45
2023/05/19 05:53:21;;;;;;;4.90;1.75;;;27.40;99.10;;;;;;5043812;28;20018;-47
2023/05/19 05:55:48;;;;;;;8.45;1.75;;;27.40;99.10;;;;;;5043331;28;20060;-45
2023/05/19 05:58:15;;;;;;;5.95;1.45;;;27.40;98.90;;;;;;5043796;28;20382;-44
2023/05/19 06:00:43;;;;;;;10.00;1.65;;;27.30;98.90;;;;;;5055466;28;20040;-42
2023/05/19 06:03:10;;;;;;;4.28;1.40;;;27.30;98.80;;;;;;5063358;28;20249;-41
2023/05/19 06:05:37;;;;;;;5.05;1.40;;;27.30;98.80;;;;;;5063255;28;20135;-43
2023/05/19 06:08:04;;;;;;;7.15;1.60;;;27.30;98.70;;;;;;5063524;28;20021;-46
2023/05/19 06:10:31;;;;;;;7.45;1.73;;;27.30;98.80;;;;;;5063026;28;20047;-45
2023/05/19 06:12:58;;;;;;;6.10;1.60;;;27.30;98.80;;;;;;5063780;28;20036;-43
2023/05/19 06:15:25;;;;;;;6.63;1.38;;;27.30;98.90;;;;;;5066826;28;20317;-48
2023/05/19 06:17:53;;;;;;;5.72;1.70;;;27.30;98.90;;;;;;5066942;28;20044;-42
2023/05/19 06:20:20;;;;;;;8.38;1.67;;;27.30;98.80;;;;;;5065569;28;20217;-45
2023/05/19 06:22:46;;;;;;;7.60;1.73;;;27.20;98.90;;;;;;5066960;28;20368;-46
2023/05/19 06:25:13;;;;;;;7.50;1.40;;;27.30;99.00;;;;;;5066643;28;20031;-42
2023/05/19 06:27:40;;;;;;;5.95;1.58;;;27.30;99.00;;;;;;5062460;28;20030;-41
2023/05/19 06:30:07;;;;;;;6.18;1.85;;;27.20;98.80;;;;;;5046569;28;20074;-47
2023/05/19 06:32:34;;;;;;;4.55;1.48;;;27.30;98.80;;;;;;5046519;28;20100;-42
2023/05/19 06:35:00;;;;;;;5.22;1.23;;;27.20;98.70;;;;;;5046391;28;20191;-43
2023/05/19 06:37:27;;;;;;;6.70;1.98;;;27.20;98.80;;;;;;5046780;28;20025;-44
2023/05/19 06:39:54;;;;;;;6.13;1.52;;;27.30;98.80;;;;;;5046708;28;20025;-44
2023/05/19 06:42:21;;;;;;;5.30;1.63;;;27.30;98.80;;;;;;5046218;28;20052;-51
2023/05/19 06:44:49;;;;;;;6.07;1.50;;;27.40;98.80;;;;;;5046343;28;20039;-46
2023/05/19 06:47:16;;;;;;;8.82;1.70;;;27.40;98.70;;;;;;5046356;28;20033;-44
2023/05/19 06:49:44;;;;;;;7.65;1.65;;;27.40;98.80;;;;;;5046077;28;20025;-44
2023/05/19 06:52:11;;;;;;;8.40;1.20;;;27.40;98.60;;;;;;5046221;28;20032;-42
2023/05/19 06:54:38;;;;;;;6.97;1.55;;;27.30;98.60;;;;;;5046117;28;20033;-44
2023/05/19 06:57:05;;;;;;;8.40;1.60;;;27.30;98.60;;;;;;5045998;28;20222;-45
2023/05/19 06:59:32;;;;;;;5.75;1.80;;;27.30;98.60;;;;;;5046075;28;20029;-45
2023/05/19 07:01:58;;;;;;;7.30;1.73;;;27.30;98.50;;;;;;5045830;28;20029;-44
2023/05/19 07:04:26;;;;;;;6.95;1.70;;;27.30;98.40;;;;;;5045828;28;20249;-48
2023/05/19 07:06:53;;;;;;;8.77;1.70;;;27.30;98.30;;;;;;5045933;28;20309;-50
2023/05/19 07:09:20;;;;;;;3.42;1.45;;;27.20;98.30;;;;;;5045721;28;20032;-43
2023/05/19 07:11:47;;;;;;;7.05;1.70;;;27.30;98.30;;;;;;5045729;28;20045;-46
2023/05/19 07:14:14;;;;;;;10.32;1.77;;;27.20;98.30;;;;;;5045871;28;20033;-45
2023/05/19 07:16:40;;;;;;;8.13;1.55;;;27.20;98.20;;;;;;5045648;28;20025;-43
2023/05/19 07:19:07;;;;;;;9.38;1.73;;;27.20;98.20;;;;;;5046110;28;20049;-44
2023/05/19 07:21:34;;;;;;;11.05;1.70;;;27.20;98.10;;;;;;5045620;28;20048;-42
2023/05/19 07:24:01;;;;;;;5.40;1.30;;;27.30;98.30;;;;;;5045811;28;20037;-43
2023/05/19 07:26:28;;;;;;;5.47;1.40;;;27.20;98.20;;;;;;5045433;28;20037;-43
2023/05/19 07:28:56;;;;;;;5.68;1.40;;;27.30;98.20;;;;;;5053103;28;20096;-41
2023/05/19 07:31:23;;;;;;;7.20;1.52;;;27.20;98.10;;;;;;5065360;28;20052;-47
2023/05/19 07:33:50;;;;;;;6.10;1.65;;;27.30;98.20;;;;;;5065612;28;20067;-42
2023/05/19 07:36:16;;;;;;;10.50;2.58;;;27.20;98.10;;;;;;5065396;28;20025;-42
2023/05/19 07:38:43;;;;;;;11.75;4.68;;;27.30;98.10;;;;;;5065870;28;20052;-43
2023/05/19 07:41:09;;;;;;;10.82;4.80;;;27.20;98.10;;;;;;5065088;28;20085;-43
2023/05/19 07:43:36;;;;;;;6.40;3.58;;;27.30;98.10;;;;;;5065545;28;20025;-46
2023/05/19 07:46:03;;;;;;;7.03;2.67;;;27.20;98.00;;;;;;5065096;28;20321;-44
2023/05/19 07:48:30;;;;;;;7.22;2.15;;;27.20;98.00;;;;;;5065331;28;20032;-42
2023/05/19 07:50:57;;;;;;;7.13;2.00;;;27.20;98.00;;;;;;5065131;28;20036;-43
2023/05/19 07:53:24;;;;;;;7.03;2.70;;;27.20;98.00;;;;;;5065469;28;20021;-44
2023/05/19 07:55:50;;;;;;;8.00;1.92;;;27.20;98.00;;;;;;5064805;28;20021;-45
2023/05/19 07:58:17;;;;;;;6.78;1.73;;;27.20;98.10;;;;;;5064801;28;20086;-42
2023/05/19 08:00:44;;;;;;;8.07;1.83;;;27.20;98.30;;;;;;5064859;28;20164;-44
2023/05/19 08:03:12;;;;;;;6.47;1.70;;;27.20;98.20;;;;;;5064852;28;20032;-48
2023/05/19 08:05:39;;;;;;;6.43;1.58;;;27.10;98.30;;;;;;5064707;28;20017;-46
2023/05/19 08:08:06;;;;;;;8.93;1.80;;;27.10;98.00;;;;;;5065210;28;20326;-48
2023/05/19 08:10:32;;;;;;;6.25;1.80;;;27.00;98.10;;;;;;5064376;28;20044;-49
2023/05/19 08:12:59;;;;;;;8.75;1.90;;;27.00;98.10;;;;;;5064964;28;20297;-49
2023/05/19 08:15:26;;;;;;;8.30;1.70;;;27.10;98.20;;;;;;5064608;28;20134;-47
2023/05/19 08:17:52;;;;;;;5.47;1.85;;;27.00;98.20;;;;;;5064659;28;20293;-43
2023/05/19 08:20:21;;;;;;;4.75;1.88;;;27.00;98.20;;;;;;5064499;28;20076;-47
2023/05/19 08:22:48;;;;;;;5.28;1.50;;;27.00;98.20;;;;;;5064487;28;20221;-46
2023/05/19 08:25:14;;;;;;;7.25;1.40;;;27.00;98.30;;;;;;5064431;28;20248;-43
2023/05/19 08:27:41;;;;;;;7.30;1.67;;;27.00;98.30;;;;;;5064474;28;20071;-43
2023/05/19 08:30:08;;;;;;;3.15;1.50;;;27.00;98.30;;;;;;5064344;28;20021;-46
2023/05/19 08:32:35;;;;;;;7.40;1.70;;;27.00;98.50;;;;;;5064376;28;20088;-45
2023/05/19 08:35:01;;;;;;;6.57;1.95;;;26.90;98.50;;;;;;5064212;28;20075;-48
2023/05/19 08:37:28;;;;;;;6.25;1.70;;;26.90;98.60;;;;;;5063833;28;20026;-49
2023/05/19 08:39:56;;;;;;;5.35;1.55;;;26.90;98.50;;;;;;5064140;28;20044;-49
2023/05/19 08:42:22;;;;;;;8.93;1.90;;;27.00;98.60;;;;;;5064033;28;20031;-47
2023/05/19 08:44:49;;;;;;;9.02;1.80;;;27.00;98.60;;;;;;5064059;28;20028;-47
2023/05/19 08:47:17;;;;;;;9.25;1.90;;;26.90;98.60;;;;;;5064105;28;20037;-48
2023/05/19 08:49:45;;;;;;;5.38;1.88;;;26.90;98.60;;;;;;5063930;28;20094;-47
2023/05/19 08:52:26;;;;;;;4.57;1.83;;;26.90;98.60;;;;;;5063992;28;20300;-50
2023/05/19 08:55:03;;;;;;;7.63;2.03;;;26.80;98.60;;;;;;5063856;28;20031;-44
2023/05/19 08:57:31;;;;;;;8.43;1.85;;;26.90;98.60;;;;;;5063981;28;20036;-50
2023/05/19 08:59:58;;;;;;;8.65;1.98;;;26.90;98.60;;;;;;5063876;28;20102;-46
2023/05/19 09:02:26;;;;;;;4.57;1.38;;;26.90;98.70;;;;;;5063771;28;20099;-50
2023/05/19 09:04:53;;;;;;;5.18;1.65;;;26.80;98.70;;;;;;5063824;28;20029;-45
2023/05/19 09:07:22;;;;;;;8.98;1.58;;;26.90;98.80;;;;;;5063921;28;20021;-44
2023/05/19 09:09:48;;;;;;;5.35;1.70;;;26.80;98.70;;;;;;5063644;28;20240;-46
2023/05/19 09:12:15;;;;;;;8.93;1.95;;;26.80;98.70;;;;;;5063817;28;20029;-48
2023/05/19 09:14:42;;;;;;;7.00;1.60;;;26.80;98.80;;;;;;5063747;28;20224;-46
2023/05/19 09:17:09;;;;;;;5.88;1.65;;;26.80;98.70;;;;;;5063680;28;20059;-42
2023/05/19 09:19:41;;;;;;;7.70;1.65;;;26.90;98.80;;;;;;5063725;28;20021;-44
2023/05/19 09:22:08;;;;;;;10.45;1.83;;;26.80;98.80;;;;;;5063448;28;20116;-43
2023/05/19 09:24:35;;;;;;;9.85;1.50;;;26.80;98.80;;;;;;5063714;28;20183;-49
2023/05/19 09:27:01;;;;;;;4.47;1.88;;;26.80;98.90;;;;;;5063621;28;20029;-44
2023/05/19 09:29:28;;;;;;;6.30;1.80;;;26.80;98.80;;;;;;5063560;28;20021;-41
2023/05/19 09:32:05;;;;;;;5.32;1.65;;;26.80;98.80;;;;;;5063385;28;20037;-45
2023/05/19 09:34:32;;;;;;;4.55;1.65;;;26.70;98.90;;;;;;5063969;28;20312;-46
2023/05/19 09:36:58;;;;;;;6.93;1.45;;;26.80;98.90;;;;;;5063363;28;20037;-47
2023/05/19 09:39:27;;;;;;;4.97;2.10;;;26.80;98.90;;;;;;5063571;28;20021;-47
2023/05/19 09:41:57;;;;;;;15.93;6.88;;;26.80;98.90;;;;;;5063314;28;20045;-45
2023/05/19 09:44:29;;;;;;;13.38;8.65;;;26.80;98.70;;;;;;5063298;28;20221;-45
2023/05/19 09:46:57;;;;;;;10.73;6.40;;;26.70;98.80;;;;;;5063596;28;20025;-45
2023/05/19 09:49:31;;;;;;;8.88;4.43;;;26.70;98.80;;;;;;5066265;28;20031;-47
2023/05/19 09:52:02;;;;;;;15.75;7.30;;;26.70;98.90;;;;;;5067244;28;20025;-48
2023/05/19 09:54:31;;;;;;;13.52;9.05;;;26.70;98.90;;;;;;5067180;28;20025;-44
2023/05/19 09:57:02;;;;;;;9.82;6.38;;;26.80;98.90;;;;;;5066959;28;20025;-46
2023/05/19 09:59:30;;;;;;;10.80;5.65;;;26.70;98.70;;;;;;5051745;28;20092;-43
2023/05/19 10:01:58;;;;;;;12.38;4.78;;;26.60;98.70;;;;;;5047009;28;20022;-45
2023/05/19 10:04:27;;;;;;;8.35;4.47;;;26.60;98.60;;;;;;5046930;28;20026;-46
2023/05/19 10:06:58;;;;;;;10.95;4.60;;;26.70;98.80;;;;;;5047107;28;20037;-42
2023/05/19 10:09:26;;;;;;;8.80;4.80;;;26.60;98.70;;;;;;5046820;28;20046;-43
2023/05/19 10:11:55;;;;;;;10.02;4.95;;;26.70;98.70;;;;;;5047007;28;20033;-46
2023/05/19 10:14:29;;;;;;;8.65;4.72;;;26.70;98.80;;;;;;5046860;28;20021;-43
2023/05/19 10:16:57;;;;;;;10.75;5.53;;;26.70;98.80;;;;;;5046707;28;20021;-44
2023/05/19 10:19:27;;;;;;;14.20;8.30;;;26.70;98.80;;;;;;5046814;28;20029;-43
2023/05/19 10:21:54;;;;;;;9.23;6.35;;;26.60;98.80;;;;;;5046648;28;20017;-49
2023/05/19 10:24:21;;;;;;;10.43;6.30;;;26.70;98.80;;;;;;5046562;28;20022;-50
2023/05/19 10:27:02;;;;;;;10.02;5.55;;;26.70;98.80;;;;;;5046633;28;20026;-44
2023/05/19 10:29:33;;;;;;;11.20;5.00;;;26.60;98.90;;;;;;5049178;28;20021;-47
2023/05/19 10:32:16;;;;;;;13.50;4.05;;;26.60;98.90;;;;;;5046414;28;20191;-50
2023/05/19 10:35:27;;;;;;;7.43;3.67;;;26.70;98.90;;;;;;5046445;28;20133;-43
2023/05/19 10:38:00;;;;;;;10.70;3.78;;;26.70;98.90;;;;;;5046507;28;20034;-52
2023/05/19 10:40:36;;;;;;;9.25;3.17;;;26.60;98.90;;;;;;5046486;28;20029;-51
2023/05/19 10:43:11;;;;;;;11.82;3.05;;;26.60;98.90;;;;;;5046472;28;20034;-46
2023/05/19 10:45:50;;;;;;;8.63;2.53;;;26.60;99.00;;;;;;5046277;28;20237;-43
2023/05/19 10:48:20;;;;;;;11.02;2.40;;;26.60;99.00;;;;;;5046577;28;20030;-43
2023/05/19 10:50:52;;;;;;;7.00;2.42;;;26.60;99.00;;;;;;5046095;28;20048;-45
2023/05/19 10:53:21;;;;;;;9.35;2.65;;;26.60;99.00;;;;;;5046509;28;20033;-51
2023/05/19 10:55:55;;;;;;;6.30;2.40;;;26.70;99.00;;;;;;5050448;28;20037;-47
2023/05/19 10:58:49;;;;;;;10.63;2.30;;;26.60;99.00;;;;;;5066371;28;20032;-43
2023/05/19 11:01:19;;;;;;;9.68;2.45;;;26.70;98.90;;;;;;5050863;28;20033;-43
2023/05/19 11:03:58;;;;;;;9.70;2.33;;;26.70;98.80;;;;;;5052007;28;20269;-42
2023/05/19 11:06:35;;;;;;;7.85;2.17;;;26.70;98.70;;;;;;5049139;28;20031;-53
2023/05/19 11:09:17;;;;;;;32.80;3.03;;;26.80;98.60;;;;;;5046341;28;20075;-54
2023/05/19 11:11:53;;;;;;;15.05;2.88;;;26.80;98.60;;;;;;5045752;28;20229;-59
2023/05/19 11:14:26;;;;;;;9.57;2.30;;;26.70;98.40;;;;;;5045869;28;20033;-52
2023/05/19 11:16:59;;;;;;;8.27;1.90;;;26.80;98.50;;;;;;5045394;28;20029;-48
2023/05/19 11:19:36;;;;;;;15.13;2.35;;;26.80;98.40;;;;;;5051004;28;20096;-44
2023/05/19 11:22:13;;;;;;;8.00;2.03;;;26.80;98.50;;;;;;5065871;28;20029;-43
2023/05/19 11:24:48;;;;;;;11.27;1.70;;;26.80;98.60;;;;;;5064607;28;20103;-49
2023/05/19 11:27:31;;;;;;;9.80;1.90;;;26.80;98.60;;;;;;5063939;28;20029;-47
2023/05/19 11:30:10;;;;;;;9.73;1.80;;;26.90;98.60;;;;;;5064318;28;20020;-53
2023/05/19 11:32:41;;;;;;;8.23;2.00;;;26.90;98.50;;;;;;5064432;28;20210;-42
2023/05/19 11:35:09;;;;;;;5.20;1.50;;;26.90;98.50;;;;;;5064897;28;20039;-50
2023/05/19 11:37:36;;;;;;;7.47;2.00;;;26.90;98.50;;;;;;5065083;28;20186;-46
2023/05/19 11:40:05;;;;;;;7.93;2.05;;;26.90;98.50;;;;;;5065106;28;20035;-45
2023/05/19 11:42:33;;;;;;;8.65;1.80;;;27.00;98.40;;;;;;5065191;28;20205;-54
2023/05/19 11:45:00;;;;;;;9.57;1.60;;;27.00;98.30;;;;;;5065229;28;20221;-42
2023/05/19 11:47:27;;;;;;;10.00;2.28;;;27.00;98.20;;;;;;5065048;28;20284;-42
2023/05/19 11:49:57;;;;;;;6.50;1.80;;;27.10;98.20;;;;;;5065291;28;20029;-45
2023/05/19 11:52:26;;;;;;;7.82;2.00;;;27.00;98.10;;;;;;5065173;28;20070;-43
2023/05/19 11:54:52;;;;;;;9.10;1.92;;;27.10;98.10;;;;;;5064843;28;20025;-44
2023/05/19 11:57:19;;;;;;;8.88;2.03;;;27.20;98.10;;;;;;5064972;28;20047;-45
2023/05/19 11:59:48;;;;;;;6.25;1.92;;;27.30;98.00;;;;;;5064899;28;20321;-43
2023/05/19 12:02:21;;;;;;;7.75;2.15;;;27.40;97.80;;;;;;5064892;28;20309;-42
2023/05/19 12:04:48;;;;;;;9.80;2.30;;;27.50;97.70;;;;;;5064057;28;20032;-44
2023/05/19 12:07:24;;;;;;;12.70;3.00;;;27.60;97.60;;;;;;5064660;28;20052;-44
2023/05/19 12:09:52;;;;;;;7.85;2.80;;;27.70;97.60;;;;;;5064527;28;20348;-43
2023/05/19 12:12:20;;;;;;;12.20;2.97;;;27.70;97.50;;;;;;5063857;28;20033;-45
2023/05/19 12:14:48;;;;;;;10.40;3.47;;;27.80;97.50;;;;;;5063009;28;20394;-40
2023/05/19 12:17:19;;;;;;;7.93;3.05;;;27.90;97.30;;;;;;5064611;28;20033;-42
2023/05/19 12:19:50;;;;;;;9.65;2.85;;;27.90;97.10;;;;;;5053380;28;20029;-46
2023/05/19 12:22:17;;;;;;;8.60;2.45;;;27.90;97.00;;;;;;5044353;28;20041;-48
2023/05/19 12:24:45;;;;;;;5.75;2.70;;;27.90;96.80;;;;;;5063596;28;20021;-46
2023/05/19 12:27:19;;;;;;;8.25;2.50;;;28.00;96.70;;;;;;5064409;28;20029;-44
2023/05/19 12:29:53;;;;;;;6.25;2.00;;;28.00;96.60;;;;;;5064537;28;20344;-48
2023/05/19 12:32:24;;;;;;;11.25;2.40;;;28.10;96.50;;;;;;5064279;28;20086;-45
2023/05/19 12:34:51;;;;;;;14.98;2.00;;;28.00;96.30;;;;;;5064060;28;20017;-48
2023/05/19 12:37:18;;;;;;;11.85;2.20;;;28.10;96.30;;;;;;5055192;28;20069;-47
2023/05/19 12:39:45;;;;;;;10.15;2.03;;;28.10;96.10;;;;;;5044202;28;20025;-41
2023/05/19 12:42:12;;;;;;;11.88;2.13;;;28.10;96.40;;;;;;5044205;28;20096;-43
2023/05/19 12:44:51;;;;;;;12.60;2.15;;;28.10;96.30;;;;;;5044173;28;20032;-48
2023/05/19 12:47:19;;;;;;;13.98;2.22;;;28.10;96.30;;;;;;5046651;28;20071;-42
2023/05/19 12:50:09;;;;;;;15.55;2.30;;;28.20;96.40;;;;;;5052421;28;20044;-39
2023/05/19 12:52:44;;;;;;;7.35;1.90;;;28.20;96.30;;;;;;5063671;28;20025;-43
2023/05/19 12:55:12;;;;;;;10.07;1.95;;;28.20;96.20;;;;;;5050014;28;20025;-42
2023/05/19 12:57:41;;;;;;;6.75;2.10;;;28.30;96.30;;;;;;5043974;28;20222;-48